Time;durP1;ratioP1;P1;durP2;ratioP2;P2;SDS_P1;SDS_P2;PMS_P1;PMS_P2;Temp;Humidity;BMP_temperature;BMP_pressure;BME280_temperature;BME280_humidity;BME280_pressure;Samples;Min_cycle;Max_cycle;Signal;HPM_P1;HPM_P2
2022/01/22 00:01:18;;;;;;;21.30;3.50;;;;;;;;;;5091614;28;20290;-76
2022/01/22 00:03:44;;;;;;;21.08;3.92;;;;;;;;;;5091759;28;20286;-76
2022/01/22 00:06:10;;;;;;;19.33;3.10;;;;;;;;;;5091596;28;20047;-76
2022/01/22 00:08:36;;;;;;;24.10;4.50;;;;;;;;;;5093332;28;20278;-75
2022/01/22 00:11:03;;;;;;;21.03;3.60;;;;;;;;;;5092811;28;20285;-75
2022/01/22 00:16:14;;;;;;;19.43;3.30;;;;;;;;;;5095058;28;20059;-76
2022/01/22 00:18:40;;;;;;;20.23;4.05;;;;;;;;;;5097139;28;20625;-75
2022/01/22 00:21:06;;;;;;;22.50;3.97;;;;;;;;;;5095885;28;20396;-81
2022/01/22 00:23:32;;;;;;;18.50;2.80;;;;;;;;;;5096200;28;20321;-75
2022/01/22 00:25:58;;;;;;;22.37;3.17;;;;;;;;;;5096009;28;20282;-75
2022/01/22 00:28:24;;;;;;;14.60;2.90;;;;;;;;;;5096679;28;20278;-75
2022/01/22 00:30:51;;;;;;;23.17;3.50;;;;;;;;;;5095771;28;20395;-76
2022/01/22 00:33:17;;;;;;;16.80;3.03;;;;;;;;;;5095270;28;20301;-76
2022/01/22 00:35:44;;;;;;;18.70;3.08;;;;;;;;;;5096786;28;20769;-76
2022/01/22 00:38:10;;;;;;;19.10;2.90;;;;;;;;;;5078741;28;20062;-76
2022/01/22 00:40:36;;;;;;;23.67;2.63;;;;;;;;;;5096793;28;20297;-76
2022/01/22 00:43:02;;;;;;;16.70;2.60;;;;;;;;;;5096772;28;20285;-75
2022/01/22 00:45:29;;;;;;;22.27;2.22;;;;;;;;;;5095198;28;20322;-76
2022/01/22 00:47:55;;;;;;;18.37;3.10;;;;;;;;;;5096543;28;20127;-76
2022/01/22 00:50:23;;;;;;;18.50;2.53;;;;;;;;;;5094988;28;20282;-76
2022/01/22 00:52:50;;;;;;;17.53;3.10;;;;;;;;;;5096397;28;20785;-76
2022/01/22 00:55:16;;;;;;;21.53;3.17;;;;;;;;;;5096021;28;20278;-76
2022/01/22 00:57:43;;;;;;;17.50;3.80;;;;;;;;;;5078502;28;20642;-75
2022/01/22 01:00:11;;;;;;;22.37;3.30;;;;;;;;;;5096278;28;20613;-81
2022/01/22 01:02:37;;;;;;;17.97;2.60;;;;;;;;;;5095620;28;20326;-75
2022/01/22 01:05:04;;;;;;;21.90;3.30;;;;;;;;;;5095062;28;20286;-75
2022/01/22 01:07:30;;;;;;;20.03;3.13;;;;;;;;;;5095944;28;20658;-75
2022/01/22 01:09:57;;;;;;;21.60;2.70;;;;;;;;;;5096154;28;20278;-75
2022/01/22 01:12:23;;;;;;;23.70;3.73;;;;;;;;;;5094599;28;20294;-75
2022/01/22 01:15:10;;;;;;;19.60;3.23;;;;;;;;;;5095271;28;20294;-76
2022/01/22 01:34:14;;;;;;;18.80;2.38;;;;;;;;;;5095757;28;20051;-75
2022/01/22 01:36:40;;;;;;;12.80;2.13;;;;;;;;;;5094756;28;20063;-75
2022/01/22 01:39:10;;;;;;;14.57;2.27;;;;;;;;;;5095158;28;20305;-75
2022/01/22 01:41:47;;;;;;;18.17;2.47;;;;;;;;;;5094250;28;20373;-75
2022/01/22 01:44:14;;;;;;;13.30;2.03;;;;;;;;;;5079184;28;20638;-81
2022/01/22 01:46:44;;;;;;;10.47;2.10;;;;;;;;;;5095596;28;20310;-76
2022/01/22 01:49:10;;;;;;;11.80;2.30;;;;;;;;;;5095376;28;20274;-76
2022/01/22 01:51:36;;;;;;;12.13;1.70;;;;;;;;;;5093828;28;20653;-76
2022/01/22 01:54:14;;;;;;;15.60;2.07;;;;;;;;;;5077511;28;20294;-75
2022/01/22 01:59:25;;;;;;;14.83;2.27;;;;;;;;;;5094867;28;20365;-75
2022/01/22 02:01:51;;;;;;;10.53;1.80;;;;;;;;;;5094214;28;20600;-75
2022/01/22 02:04:17;;;;;;;11.03;1.80;;;;;;;;;;5094849;28;20371;-76
2022/01/22 02:06:43;;;;;;;15.50;1.80;;;;;;;;;;5095387;28;20294;-76
2022/01/22 02:09:10;;;;;;;12.90;2.07;;;;;;;;;;5093726;28;20830;-75
2022/01/22 02:11:40;;;;;;;13.23;2.57;;;;;;;;;;5094685;28;20302;-75
2022/01/22 02:23:30;;;;;;;11.30;2.13;;;;;;;;;;5095057;28;20270;-75
2022/01/22 02:25:10;;;;;;;11.40;2.17;;;;;;;;;;5094961;28;20279;-75
2022/01/22 02:27:36;;;;;;;13.43;2.00;;;;;;;;;;5094406;28;20127;-75
2022/01/22 02:30:03;;;;;;;10.57;1.90;;;;;;;;;;5093704;28;20293;-75
2022/01/22 02:35:26;;;;;;;10.93;2.03;;;;;;;;;;5094724;28;20278;-76
2022/01/22 02:37:59;;;;;;;15.90;1.97;;;;;;;;;;5093673;28;20153;-75
2022/01/22 02:40:33;;;;;;;8.73;1.67;;;;;;;;;;5094344;28;20286;-75
2022/01/22 02:43:00;;;;;;;12.27;2.13;;;;;;;;;;5094301;28;20738;-75
2022/01/22 02:45:26;;;;;;;10.60;1.53;;;;;;;;;;5094394;28;20404;-75
2022/01/22 02:47:53;;;;;;;14.07;2.07;;;;;;;;;;5093334;28;20293;-75
2022/01/22 02:50:20;;;;;;;12.73;1.77;;;;;;;;;;5094203;28;20289;-79
2022/01/22 02:52:47;;;;;;;8.30;1.70;;;;;;;;;;5094166;28;20301;-75
2022/01/22 02:55:14;;;;;;;9.87;1.73;;;;;;;;;;5076599;28;20282;-75
2022/01/22 02:57:42;;;;;;;8.80;1.87;;;;;;;;;;5093786;28;20289;-75
2022/01/22 03:00:11;;;;;;;7.87;1.47;;;;;;;;;;5093814;28;20825;-75
2022/01/22 03:02:37;;;;;;;12.37;1.50;;;;;;;;;;5075834;28;20286;-75
2022/01/22 03:05:04;;;;;;;7.90;1.30;;;;;;;;;;5076381;28;20286;-74
2022/01/22 03:07:30;;;;;;;12.23;1.57;;;;;;;;;;5093593;28;20765;-75
2022/01/22 03:10:01;;;;;;;13.47;2.10;;;;;;;;;;5092871;28;20324;-75
2022/01/22 03:20:48;;;;;;;12.20;1.95;;;;;;;;;;5093444;28;20058;-77
2022/01/22 03:28:56;;;;;;;11.55;1.80;;;;;;;;;;5091985;28;20139;-75
2022/01/22 03:31:22;;;;;;;8.10;1.57;;;;;;;;;;5093250;28;20594;-73
2022/01/22 03:33:49;;;;;;;12.53;2.00;;;;;;;;;;5092259;28;20286;-74
2022/01/22 03:36:15;;;;;;;11.20;1.60;;;;;;;;;;5093513;28;20285;-74
2022/01/22 03:38:41;;;;;;;10.93;1.93;;;;;;;;;;5091923;28;20619;-74
2022/01/22 03:41:08;;;;;;;10.70;1.90;;;;;;;;;;5093559;28;20270;-75
2022/01/22 03:43:34;;;;;;;10.13;1.60;;;;;;;;;;5093097;28;20286;-75
2022/01/22 03:46:00;;;;;;;8.90;1.90;;;;;;;;;;5093393;28;20281;-74
2022/01/22 03:48:26;;;;;;;10.67;1.80;;;;;;;;;;5092927;28;20277;-79
2022/01/22 03:50:53;;;;;;;13.77;2.60;;;;;;;;;;5091964;28;20278;-75
2022/01/22 03:53:19;;;;;;;10.30;1.97;;;;;;;;;;5091936;28;20302;-74
2022/01/22 03:58:12;;;;;;;13.60;2.03;;;;;;;;;;5093159;28;20766;-74
2022/01/22 04:00:38;;;;;;;8.03;1.40;;;;;;;;;;5091877;28;20274;-74
2022/01/22 04:08:35;;;;;;;10.17;1.97;;;;;;;;;;5091130;28;20781;-74
2022/01/22 04:11:02;;;;;;;11.60;1.93;;;;;;;;;;5093175;28;20289;-74
2022/01/22 04:13:33;;;;;;;11.43;2.20;;;;;;;;;;5092706;28;20305;-80
2022/01/22 04:15:59;;;;;;;9.43;1.90;;;;;;;;;;5093008;28;20366;-74
2022/01/22 04:27:08;;;;;;;15.23;2.78;;;;;;;;;;5092731;28;20044;-74
2022/01/22 04:29:34;;;;;;;10.33;2.17;;;;;;;;;;5092604;28;20055;-75
2022/01/22 04:32:00;;;;;;;12.50;2.57;;;;;;;;;;5092727;28;20324;-74
2022/01/22 04:34:26;;;;;;;11.73;2.70;;;;;;;;;;5092752;28;20693;-74
2022/01/22 04:36:52;;;;;;;13.83;2.33;;;;;;;;;;5092446;28;20281;-74
2022/01/22 04:39:21;;;;;;;12.07;1.70;;;;;;;;;;5092667;28;20678;-74
2022/01/22 04:41:47;;;;;;;13.37;2.17;;;;;;;;;;5092513;28;20361;-75
2022/01/22 04:44:14;;;;;;;12.43;1.83;;;;;;;;;;5092704;28;20286;-74
2022/01/22 04:52:28;;;;;;;11.00;1.70;;;;;;;;;;5092626;28;20320;-74
2022/01/22 04:55:00;;;;;;;11.38;1.50;;;;;;;;;;5092379;28;20277;-75
2022/01/22 04:57:30;;;;;;;11.90;1.50;;;;;;;;;;5092707;28;20070;-74
2022/01/22 04:59:56;;;;;;;10.15;1.33;;;;;;;;;;5092244;28;20336;-74
2022/01/22 05:02:22;;;;;;;12.87;1.80;;;;;;;;;;5095829;28;20165;-74
2022/01/22 05:04:49;;;;;;;8.37;1.53;;;;;;;;;;5096088;28;20274;-74
2022/01/22 05:07:15;;;;;;;11.03;2.00;;;;;;;;;;5096306;28;20321;-74
2022/01/22 05:09:41;;;;;;;8.83;1.77;;;;;;;;;;5095917;28;20672;-75
2022/01/22 05:12:07;;;;;;;9.20;1.77;;;;;;;;;;5078250;28;20299;-74
2022/01/22 05:14:34;;;;;;;7.83;1.93;;;;;;;;;;5096175;28;20309;-78
2022/01/22 05:17:03;;;;;;;10.27;1.60;;;;;;;;;;5096068;28;20278;-74
2022/01/22 05:19:36;;;;;;;12.97;1.73;;;;;;;;;;5094860;28;20278;-74
2022/01/22 05:22:39;;;;;;;8.40;1.30;;;;;;;;;;5095395;28;20343;-74
2022/01/22 05:24:54;;;;;;;8.25;1.50;;;;;;;;;;5095398;28;20766;-75
2022/01/22 05:30:12;;;;;;;9.13;1.50;;;;;;;;;;5095902;28;20281;-74
2022/01/22 05:33:14;;;;;;;7.40;1.50;;;;;;;;;;5094274;28;20355;-75
2022/01/22 05:38:09;;;;;;;9.23;1.73;;;;;;;;;;5096020;28;20067;-74
2022/01/22 05:40:35;;;;;;;14.37;2.03;;;;;;;;;;5095115;28;20286;-74
2022/01/22 05:43:01;;;;;;;14.00;2.60;;;;;;;;;;5095387;28;20361;-74
2022/01/22 05:45:28;;;;;;;9.13;2.03;;;;;;;;;;5094581;28;20293;-74
2022/01/22 05:47:54;;;;;;;7.90;2.20;;;;;;;;;;5095197;28;20305;-74
2022/01/22 05:50:31;;;;;;;9.83;2.07;;;;;;;;;;5095473;28;20339;-75
2022/01/22 05:53:02;;;;;;;10.97;2.43;;;;;;;;;;5093942;28;20843;-75
2022/01/22 05:59:35;;;;;;;12.00;2.10;;;;;;;;;;5094402;28;20281;-75
2022/01/22 06:01:04;;;;;;;9.53;1.57;;;;;;;;;;5094185;28;20301;-75
2022/01/22 06:03:30;;;;;;;7.63;1.53;;;;;;;;;;5077385;28;20757;-75
2022/01/22 06:05:57;;;;;;;8.17;1.63;;;;;;;;;;5094890;28;20296;-75
2022/01/22 06:08:29;;;;;;;11.60;1.90;;;;;;;;;;5095188;28;20324;-75
2022/01/22 06:10:56;;;;;;;8.60;1.70;;;;;;;;;;5094764;28;20274;-75
2022/01/22 06:13:29;;;;;;;8.48;1.50;;;;;;;;;;5095121;28;20684;-75
2022/01/22 06:15:56;;;;;;;10.20;2.13;;;;;;;;;;5093663;28;20450;-75
2022/01/22 06:18:22;;;;;;;10.63;1.70;;;;;;;;;;5093957;28;20040;-75
2022/01/22 06:20:48;;;;;;;5.57;1.50;;;;;;;;;;5094567;28;20290;-75
2022/01/22 06:23:14;;;;;;;8.17;1.70;;;;;;;;;;5094837;28;20270;-75
2022/01/22 06:25:40;;;;;;;9.73;1.80;;;;;;;;;;5094697;28;20289;-75
2022/01/22 06:28:06;;;;;;;5.97;1.43;;;;;;;;;;5094905;28;20308;-75
2022/01/22 06:30:32;;;;;;;7.03;1.33;;;;;;;;;;5093546;28;20423;-75
2022/01/22 06:32:59;;;;;;;10.20;2.43;;;;;;;;;;5094228;28;20305;-75
2022/01/22 06:35:25;;;;;;;9.20;1.70;;;;;;;;;;5094551;28;20337;-75
2022/01/22 06:37:51;;;;;;;11.70;1.87;;;;;;;;;;5093113;28;20290;-75
2022/01/22 06:42:44;;;;;;;5.63;1.83;;;;;;;;;;5094111;28;20290;-77
2022/01/22 06:45:10;;;;;;;7.33;1.97;;;;;;;;;;5094697;28;20622;-75
2022/01/22 06:47:36;;;;;;;8.85;1.80;;;;;;;;;;5094319;28;20280;-75
2022/01/22 06:50:04;;;;;;;8.00;2.20;;;;;;;;;;5093935;28;20048;-75
2022/01/22 06:52:30;;;;;;;10.52;1.98;;;;;;;;;;5092771;28;20036;-75
2022/01/22 06:54:57;;;;;;;6.50;1.83;;;;;;;;;;5093865;28;20052;-75
2022/01/22 06:57:23;;;;;;;7.67;1.37;;;;;;;;;;5094189;28;20282;-75
2022/01/22 06:59:49;;;;;;;10.70;1.50;;;;;;;;;;5092802;28;20293;-75
2022/01/22 07:02:17;;;;;;;8.65;1.35;;;;;;;;;;5093070;28;20639;-75
2022/01/22 07:04:43;;;;;;;9.73;2.13;;;;;;;;;;5093960;28;20101;-75
2022/01/22 07:07:09;;;;;;;6.03;1.70;;;;;;;;;;5093592;28;20286;-75
2022/01/22 07:09:36;;;;;;;8.60;1.57;;;;;;;;;;5094086;28;20277;-75
2022/01/22 07:12:03;;;;;;;6.57;1.33;;;;;;;;;;5093482;28;20324;-75
2022/01/22 07:14:29;;;;;;;11.87;2.23;;;;;;;;;;5093964;28;20335;-75
2022/01/22 07:16:55;;;;;;;10.07;1.37;;;;;;;;;;5093386;28;20274;-75
2022/01/22 07:19:21;;;;;;;12.13;1.77;;;;;;;;;;5093796;28;20314;-75
2022/01/22 07:21:56;;;;;;;9.10;1.50;;;;;;;;;;5093400;28;20274;-77
2022/01/22 07:24:23;;;;;;;9.80;1.65;;;;;;;;;;5092165;28;20278;-75
2022/01/22 07:26:49;;;;;;;9.70;1.60;;;;;;;;;;5093330;28;20048;-76
2022/01/22 07:29:15;;;;;;;10.00;2.10;;;;;;;;;;5093344;28;20765;-75
2022/01/22 07:31:41;;;;;;;9.80;2.10;;;;;;;;;;5092432;28;20301;-75
2022/01/22 07:34:07;;;;;;;7.83;1.37;;;;;;;;;;5093207;28;20289;-75
2022/01/22 07:36:34;;;;;;;10.30;2.03;;;;;;;;;;5093437;28;20285;-75
2022/01/22 07:39:00;;;;;;;10.23;1.50;;;;;;;;;;5092804;28;20281;-75
2022/01/22 07:41:26;;;;;;;15.13;1.80;;;;;;;;;;5093354;28;20282;-75
2022/01/22 07:43:52;;;;;;;8.60;2.37;;;;;;;;;;5093029;28;20290;-75
2022/01/22 07:46:18;;;;;;;12.77;2.20;;;;;;;;;;5075454;28;20431;-75
2022/01/22 07:48:44;;;;;;;14.17;2.00;;;;;;;;;;5075529;28;20282;-75
2022/01/22 07:51:11;;;;;;;13.70;1.90;;;;;;;;;;5092945;28;20302;-75
2022/01/22 07:53:37;;;;;;;9.80;1.90;;;;;;;;;;5093199;28;20384;-75
2022/01/22 07:56:03;;;;;;;10.53;1.73;;;;;;;;;;5092938;28;20360;-75
2022/01/22 07:58:29;;;;;;;6.30;1.60;;;;;;;;;;5093366;28;20271;-75
2022/01/22 08:00:55;;;;;;;8.80;2.00;;;;;;;;;;5092935;28;20044;-75
2022/01/22 08:03:21;;;;;;;13.70;2.03;;;;;;;;;;5093032;28;20282;-75
2022/01/22 08:05:47;;;;;;;14.47;2.83;;;;;;;;;;5092115;28;20294;-75
2022/01/22 08:08:13;;;;;;;16.40;2.23;;;;;;;;;;5091808;28;20292;-75
2022/01/22 08:10:39;;;;;;;11.57;2.63;;;;;;;;;;5093213;28;20314;-75
2022/01/22 08:13:05;;;;;;;12.43;2.43;;;;;;;;;;5092657;28;20302;-75
2022/01/22 08:15:32;;;;;;;14.03;2.30;;;;;;;;;;5093039;28;20284;-75
2022/01/22 08:18:00;;;;;;;12.17;2.30;;;;;;;;;;5092689;28;20630;-75
2022/01/22 08:20:26;;;;;;;16.17;2.53;;;;;;;;;;5092573;28;20761;-75
2022/01/22 08:22:53;;;;;;;9.90;1.90;;;;;;;;;;5092509;28;20857;-80
2022/01/22 08:25:19;;;;;;;14.70;2.33;;;;;;;;;;5092202;28;20290;-75
2022/01/22 08:30:27;;;;;;;17.05;2.50;;;;;;;;;;5092908;28;20314;-74
2022/01/22 08:35:53;;;;;;;12.37;2.20;;;;;;;;;;5092578;28;20286;-75
2022/01/22 08:38:24;;;;;;;9.82;2.00;;;;;;;;;;5096829;28;20270;-75
2022/01/22 08:40:51;;;;;;;18.03;3.37;;;;;;;;;;5096445;28;20056;-75
2022/01/22 08:43:17;;;;;;;15.30;2.80;;;;;;;;;;5096476;28;20278;-73
2022/01/22 08:45:44;;;;;;;13.70;1.87;;;;;;;;;;5096983;28;20316;-73
2022/01/22 08:48:10;;;;;;;11.57;1.90;;;;;;;;;;5096349;28;20278;-74
2022/01/22 08:50:36;;;;;;;11.27;2.03;;;;;;;;;;5096703;28;20278;-74
2022/01/22 08:53:03;;;;;;;9.97;2.20;;;;;;;;;;5096292;28;20370;-74
2022/01/22 08:55:29;;;;;;;13.23;1.93;;;;;;;;;;5095593;28;20293;-73
2022/01/22 08:57:55;;;;;;;12.77;3.23;;;;;;;;;;5096525;28;20282;-73
2022/01/22 09:00:22;;;;;;;10.50;2.60;;;;;;;;;;5095251;28;20283;-74
2022/01/22 09:02:48;;;;;;;20.30;3.00;;;;;;;;;;5096620;28;20622;-74
2022/01/22 09:05:19;;;;;;;14.63;2.93;;;;;;;;;;5096029;28;20371;-73
2022/01/22 09:07:45;;;;;;;13.00;3.20;;;;;;;;;;5096350;28;20752;-73
2022/01/22 09:10:12;;;;;;;15.70;3.50;;;;;;;;;;5095963;28;20289;-73
2022/01/22 09:12:38;;;;;;;23.00;3.77;;;;;;;;;;5096266;28;20348;-73
2022/01/22 09:15:05;;;;;;;19.93;3.90;;;;;;;;;;5095609;28;20627;-74
2022/01/22 09:17:31;;;;;;;15.20;3.10;;;;;;;;;;5096081;28;20286;-73
2022/01/22 09:19:58;;;;;;;11.07;3.50;;;;;;;;;;5096042;28;20271;-73
2022/01/22 09:22:25;;;;;;;14.53;2.83;;;;;;;;;;5096192;28;20313;-73
2022/01/22 09:24:52;;;;;;;9.60;2.13;;;;;;;;;;5094948;28;20837;-73
2022/01/22 09:27:19;;;;;;;9.80;1.90;;;;;;;;;;5095574;28;20373;-75
2022/01/22 09:29:45;;;;;;;18.60;2.90;;;;;;;;;;5096315;28;20289;-73
2022/01/22 09:32:12;;;;;;;11.97;2.30;;;;;;;;;;5095341;28;20351;-74
2022/01/22 09:34:40;;;;;;;16.30;2.20;;;;;;;;;;5095733;28;20285;-72
2022/01/22 09:37:06;;;;;;;9.10;2.00;;;;;;;;;;5094263;28;20285;-73
2022/01/22 09:39:32;;;;;;;11.87;2.17;;;;;;;;;;5095689;28;20747;-73
2022/01/22 09:41:59;;;;;;;11.77;2.07;;;;;;;;;;5094864;28;20293;-73
2022/01/22 09:44:25;;;;;;;10.40;1.83;;;;;;;;;;5095351;28;20275;-73
2022/01/22 09:46:51;;;;;;;15.07;2.20;;;;;;;;;;5095274;28;20282;-74
2022/01/22 09:49:17;;;;;;;8.93;2.30;;;;;;;;;;5077572;28;20361;-73
2022/01/22 09:51:44;;;;;;;9.97;1.73;;;;;;;;;;5095538;28;20319;-72
2022/01/22 09:54:12;;;;;;;12.43;1.97;;;;;;;;;;5095177;28;20278;-74
2022/01/22 09:56:40;;;;;;;9.20;1.60;;;;;;;;;;5094541;28;20290;-73
2022/01/22 09:59:09;;;;;;;10.30;1.80;;;;;;;;;;5093875;28;20637;-74
2022/01/22 10:01:36;;;;;;;11.87;2.03;;;;;;;;;;5094082;28;20282;-81
2022/01/22 10:04:03;;;;;;;11.70;2.73;;;;;;;;;;5093951;28;20314;-80
2022/01/22 10:06:30;;;;;;;10.67;2.07;;;;;;;;;;5095198;28;20282;-80
2022/01/22 10:09:13;;;;;;;14.63;2.10;;;;;;;;;;5095292;28;20613;-80
2022/01/22 10:11:40;;;;;;;10.17;1.90;;;;;;;;;;5095299;28;20695;-79
2022/01/22 10:14:06;;;;;;;11.07;2.03;;;;;;;;;;5093865;28;20278;-79
2022/01/22 10:16:33;;;;;;;11.40;2.40;;;;;;;;;;5095121;28;20286;-78
2022/01/22 10:19:17;;;;;;;13.13;2.37;;;;;;;;;;5094994;28;20317;-79
2022/01/22 10:21:45;;;;;;;15.03;2.87;;;;;;;;;;5093827;28;20289;-79
2022/01/22 10:24:35;;;;;;;21.17;4.90;;;;;;;;;;5094374;28;20789;-77
2022/01/22 10:27:26;;;;;;;19.17;4.53;;;;;;;;;;5093912;28;20286;-81
2022/01/22 10:30:08;;;;;;;24.20;7.43;;;;;;;;;;5093865;28;20290;-78
2022/01/22 10:35:10;;;;;;;23.90;7.60;;;;;;;;;;5093476;28;20403;-78
2022/01/22 10:37:36;;;;;;;29.53;8.77;;;;;;;;;;5094863;28;20282;-80
2022/01/22 10:40:21;;;;;;;23.33;8.73;;;;;;;;;;5092754;28;20295;-76
2022/01/22 10:42:48;;;;;;;19.48;7.28;;;;;;;;;;5094316;28;20769;-81
2022/01/22 10:45:23;;;;;;;21.63;5.83;;;;;;;;;;5093246;28;20052;-79
2022/01/22 10:47:49;;;;;;;18.77;5.17;;;;;;;;;;5094380;28;20353;-80
2022/01/22 10:50:22;;;;;;;19.87;3.83;;;;;;;;;;5093108;28;20322;-83
2022/01/22 10:52:49;;;;;;;19.17;3.50;;;;;;;;;;5094168;28;20297;-80
2022/01/22 10:55:16;;;;;;;18.13;3.33;;;;;;;;;;5092656;28;20808;-78
2022/01/22 10:58:02;;;;;;;15.87;3.70;;;;;;;;;;5093053;28;20786;-82
2022/01/22 11:00:28;;;;;;;13.70;3.10;;;;;;;;;;5092577;28;20318;-75
2022/01/22 11:02:54;;;;;;;23.03;3.13;;;;;;;;;;5094007;28;20352;-77
2022/01/22 11:05:38;;;;;;;15.37;3.20;;;;;;;;;;5092702;28;20300;-77
2022/01/22 11:08:13;;;;;;;21.10;3.77;;;;;;;;;;5094029;28;20622;-74
2022/01/22 11:10:44;;;;;;;15.93;4.00;;;;;;;;;;5093888;28;20282;-78
2022/01/22 11:13:10;;;;;;;15.70;3.23;;;;;;;;;;5093847;28;20297;-78
2022/01/22 11:15:37;;;;;;;22.77;3.70;;;;;;;;;;5093015;28;20278;-78
2022/01/22 11:18:04;;;;;;;16.97;3.27;;;;;;;;;;5092432;28;20711;-77
2022/01/22 11:20:32;;;;;;;13.83;3.03;;;;;;;;;;5075715;28;20819;-75
2022/01/22 11:22:59;;;;;;;15.40;3.20;;;;;;;;;;5093814;28;20657;-75
2022/01/22 11:25:26;;;;;;;23.43;3.60;;;;;;;;;;5093394;28;20309;-75
2022/01/22 11:27:52;;;;;;;17.70;2.50;;;;;;;;;;5093610;28;20278;-74
2022/01/22 11:30:19;;;;;;;15.60;2.67;;;;;;;;;;5093279;28;20310;-75
2022/01/22 11:32:45;;;;;;;13.37;3.73;;;;;;;;;;5092383;28;20305;-74
2022/01/22 11:35:12;;;;;;;12.43;2.97;;;;;;;;;;5093460;28;20290;-80
2022/01/22 11:37:46;;;;;;;16.60;3.43;;;;;;;;;;5093738;28;20277;-75
2022/01/22 11:40:12;;;;;;;11.60;2.80;;;;;;;;;;5093283;28;20394;-74
2022/01/22 11:42:55;;;;;;;14.10;2.53;;;;;;;;;;5093301;28;20800;-74
2022/01/22 11:45:33;;;;;;;11.43;2.10;;;;;;;;;;5093141;28;20278;-74
2022/01/22 11:48:14;;;;;;;14.33;2.60;;;;;;;;;;5093319;28;20286;-73
2022/01/22 11:50:41;;;;;;;14.30;2.17;;;;;;;;;;5093266;28;20287;-73
2022/01/22 11:53:44;;;;;;;8.90;2.17;;;;;;;;;;5091744;28;20313;-76
2022/01/22 11:56:10;;;;;;;14.47;2.10;;;;;;;;;;5053990;28;20287;-72
2022/01/22 11:58:54;;;;;;;10.67;2.50;;;;;;;;;;5088465;28;20317;-72
2022/01/22 12:01:53;;;;;;;12.70;2.50;;;;;;;;;;5091729;28;20290;-73
2022/01/22 12:04:20;;;;;;;10.90;2.03;;;;;;;;;;5092665;28;20746;-73
2022/01/22 12:07:04;;;;;;;9.60;2.33;;;;;;;;;;5074957;28;20297;-72
2022/01/22 12:10:15;;;;;;;10.27;1.70;;;;;;;;;;5092596;28;20282;-73
2022/01/22 12:15:22;;;;;;;9.90;1.60;;;;;;;;;;5093114;28;20381;-73
2022/01/22 12:17:49;;;;;;;7.73;1.63;;;;;;;;;;5091978;28;20395;-73
2022/01/22 12:23:13;;;;;;;11.83;2.17;;;;;;;;;;5093136;28;20275;-76
2022/01/22 12:25:39;;;;;;;9.90;1.93;;;;;;;;;;5091699;28;20290;-75
2022/01/22 12:28:12;;;;;;;10.10;1.67;;;;;;;;;;5092868;28;20289;-74
2022/01/22 12:30:45;;;;;;;12.70;2.90;;;;;;;;;;5092557;28;20289;-75
2022/01/22 12:33:16;;;;;;;14.17;4.03;;;;;;;;;;5092906;28;20711;-75
2022/01/22 12:35:43;;;;;;;12.67;4.67;;;;;;;;;;5092476;28;20274;-75
2022/01/22 12:38:31;;;;;;;17.27;5.83;;;;;;;;;;5092746;28;20282;-77
2022/01/22 12:44:07;;;;;;;47.17;20.13;;;;;;;;;;5091723;28;20294;-75
2022/01/22 12:46:34;;;;;;;32.83;13.90;;;;;;;;;;5092388;28;20282;-75
2022/01/22 12:49:02;;;;;;;19.07;6.50;;;;;;;;;;5092892;28;20647;-76
2022/01/22 12:51:28;;;;;;;10.50;3.13;;;;;;;;;;5092422;28;20286;-76
2022/01/22 12:53:54;;;;;;;9.70;1.97;;;;;;;;;;5092514;28;20302;-76
2022/01/22 12:56:48;;;;;;;11.27;2.30;;;;;;;;;;5092515;28;20688;-82
2022/01/22 12:59:10;;;;;;;8.43;1.67;;;;;;;;;;5092289;28;20290;-75
2022/01/22 13:01:38;;;;;;;11.53;2.20;;;;;;;;;;5092231;28;20305;-76
2022/01/22 13:04:08;;;;;;;10.47;2.10;;;;;;;;;;5091428;28;20293;-75
2022/01/22 13:06:46;;;;;;;10.90;2.07;;;;;;;;;;5090685;28;20662;-75
2022/01/22 13:09:13;;;;;;;11.93;2.20;;;;;;;;;;5092592;28;20278;-76
2022/01/22 13:11:46;;;;;;;10.37;2.00;;;;;;;;;;5087192;28;20707;-79
2022/01/22 13:14:16;;;;;;;8.67;1.67;;;;;;;;;;5086060;28;20365;-76
2022/01/22 13:16:51;;;;;;;8.33;1.70;;;;;;;;;;5084870;28;20360;-82
2022/01/22 13:19:17;;;;;;;9.43;1.83;;;;;;;;;;5080055;28;20342;-76
2022/01/22 13:21:54;;;;;;;9.90;2.50;;;;;;;;;;5080203;28;20370;-82
2022/01/22 13:24:25;;;;;;;10.27;1.70;;;;;;;;;;5075522;28;20324;-83
2022/01/22 13:27:08;;;;;;;8.10;1.70;;;;;;;;;;5089110;28;20325;-84
2022/01/22 13:29:37;;;;;;;13.50;2.03;;;;;;;;;;5086106;28;20769;-78
2022/01/22 13:32:25;;;;;;;10.17;1.93;;;;;;;;;;5088407;28;20294;-75
2022/01/22 13:40:29;;;;;;;8.10;1.50;;;;;;;;;;5077473;28;20773;-76
2022/01/22 13:48:33;;;;;;;8.60;1.73;;;;;;;;;;5098352;28;20232;-76
2022/01/22 13:51:00;;;;;;;6.83;1.93;;;;;;;;;;5085480;28;20817;-83
2022/01/22 13:53:27;;;;;;;10.07;1.50;;;;;;;;;;5066670;28;20409;-86
2022/01/22 13:56:00;;;;;;;6.57;1.30;;;;;;;;;;5070979;28;20278;-80
2022/01/22 13:58:26;;;;;;;8.47;1.60;;;;;;;;;;5068469;28;20415;-79
2022/01/22 14:00:52;;;;;;;13.50;2.63;;;;;;;;;;5086043;28;20298;-82
2022/01/22 14:03:32;;;;;;;6.83;1.30;;;;;;;;;;5087363;28;20286;-82
2022/01/22 14:06:00;;;;;;;11.07;1.93;;;;;;;;;;5086411;28;20829;-82
2022/01/22 14:08:33;;;;;;;7.73;1.20;;;;;;;;;;5088278;28;20525;-85
2022/01/22 14:11:06;;;;;;;9.60;1.80;;;;;;;;;;5086422;28;20286;-83
2022/01/22 14:13:33;;;;;;;7.77;1.73;;;;;;;;;;5068809;28;20291;-78
2022/01/22 14:16:10;;;;;;;7.80;1.87;;;;;;;;;;5069112;28;20278;-76
2022/01/22 14:18:40;;;;;;;9.77;1.47;;;;;;;;;;5084586;28;20344;-77
2022/01/22 14:21:07;;;;;;;9.10;1.83;;;;;;;;;;5100354;28;20286;-75
2022/01/22 14:23:33;;;;;;;10.93;1.90;;;;;;;;;;5069527;28;20291;-77
2022/01/22 14:26:01;;;;;;;7.13;1.60;;;;;;;;;;5068875;28;20279;-77
2022/01/22 14:28:46;;;;;;;10.00;1.73;;;;;;;;;;5068477;28;20294;-77
2022/01/22 14:31:21;;;;;;;11.98;2.60;;;;;;;;;;5085906;28;20309;-77
2022/01/22 14:33:47;;;;;;;7.30;1.73;;;;;;;;;;5088308;28;20189;-76
2022/01/22 14:36:17;;;;;;;11.33;1.80;;;;;;;;;;5088887;28;20056;-76
2022/01/22 14:38:52;;;;;;;8.07;1.63;;;;;;;;;;5088630;28;20682;-75
2022/01/22 14:44:30;;;;;;;6.77;1.83;;;;;;;;;;5089793;28;20051;-75
2022/01/22 14:47:09;;;;;;;10.27;2.00;;;;;;;;;;5087556;28;20831;-75
2022/01/22 14:49:42;;;;;;;7.00;2.40;;;;;;;;;;5087312;28;20297;-76
2022/01/22 14:52:09;;;;;;;11.67;1.90;;;;;;;;;;5088917;28;20325;-78
2022/01/22 14:54:37;;;;;;;11.70;2.07;;;;;;;;;;5087999;28;20289;-82
2022/01/22 14:57:04;;;;;;;9.83;2.10;;;;;;;;;;5088963;28;20278;-79
2022/01/22 14:59:30;;;;;;;10.37;2.00;;;;;;;;;;5087707;28;20292;-77
2022/01/22 15:01:57;;;;;;;9.47;2.13;;;;;;;;;;5088614;28;20339;-74
2022/01/22 15:04:23;;;;;;;6.97;1.47;;;;;;;;;;5088458;28;20274;-78
2022/01/22 15:06:49;;;;;;;11.77;2.20;;;;;;;;;;5088836;28;20282;-76
2022/01/22 15:09:16;;;;;;;9.63;2.27;;;;;;;;;;5087353;28;20266;-82
2022/01/22 15:11:42;;;;;;;9.03;1.73;;;;;;;;;;5088142;28;20282;-80
2022/01/22 15:14:09;;;;;;;9.30;1.70;;;;;;;;;;5088613;28;20799;-79
2022/01/22 15:16:47;;;;;;;6.60;1.80;;;;;;;;;;5089038;28;20282;-78
2022/01/22 15:19:16;;;;;;;5.57;1.10;;;;;;;;;;5088597;28;20282;-79
2022/01/22 15:21:43;;;;;;;8.33;1.60;;;;;;;;;;5088454;28;20271;-76
2022/01/22 15:24:09;;;;;;;8.13;1.63;;;;;;;;;;5087293;28;20293;-77
2022/01/22 15:26:36;;;;;;;5.33;1.20;;;;;;;;;;5087441;28;20361;-78
2022/01/22 15:29:02;;;;;;;5.30;1.30;;;;;;;;;;5088292;28;20286;-81
2022/01/22 15:31:32;;;;;;;4.87;1.40;;;;;;;;;;5086206;28;20761;-82
2022/01/22 15:34:11;;;;;;;5.40;1.17;;;;;;;;;;5088048;28;20294;-77
2022/01/22 15:36:38;;;;;;;6.00;1.40;;;;;;;;;;5088100;28;20274;-77
2022/01/22 15:39:07;;;;;;;10.07;2.00;;;;;;;;;;5092752;28;20317;-75
2022/01/22 15:41:33;;;;;;;8.13;2.17;;;;;;;;;;5093268;28;20599;-75
2022/01/22 15:44:01;;;;;;;6.47;1.77;;;;;;;;;;5093224;28;20293;-75
2022/01/22 15:46:28;;;;;;;7.30;1.93;;;;;;;;;;5093099;28;20282;-74
2022/01/22 15:48:54;;;;;;;7.43;1.90;;;;;;;;;;5093118;28;20361;-74
2022/01/22 15:51:20;;;;;;;7.47;2.03;;;;;;;;;;5093125;28;20278;-76
2022/01/22 15:53:46;;;;;;;7.70;1.73;;;;;;;;;;5092919;28;20653;-76
2022/01/22 15:56:12;;;;;;;9.30;1.70;;;;;;;;;;5092289;28;20313;-75
2022/01/22 15:58:39;;;;;;;8.97;1.80;;;;;;;;;;5092842;28;20289;-75
2022/01/22 16:01:06;;;;;;;5.47;1.67;;;;;;;;;;5093499;28;20372;-75
2022/01/22 16:03:34;;;;;;;8.33;1.70;;;;;;;;;;5092806;28;20285;-77
2022/01/22 16:06:07;;;;;;;10.20;2.03;;;;;;;;;;5092990;28;20278;-79
2022/01/22 16:08:34;;;;;;;9.80;2.20;;;;;;;;;;5074822;28;20654;-82
2022/01/22 16:11:01;;;;;;;7.73;1.60;;;;;;;;;;5075253;28;20297;-80
2022/01/22 16:13:27;;;;;;;6.57;1.50;;;;;;;;;;5092873;28;20297;-77
2022/01/22 16:15:54;;;;;;;7.80;1.60;;;;;;;;;;5092717;28;20289;-78
2022/01/22 16:18:20;;;;;;;17.70;5.47;;;;;;;;;;5092076;28;20285;-79
2022/01/22 16:20:46;;;;;;;11.07;2.17;;;;;;;;;;5091583;28;20420;-80
2022/01/22 16:23:12;;;;;;;8.93;1.73;;;;;;;;;;5087335;28;20403;-82
2022/01/22 16:25:38;;;;;;;7.20;1.70;;;;;;;;;;5085259;28;20365;-79
2022/01/22 16:28:05;;;;;;;8.80;2.00;;;;;;;;;;5087189;28;20290;-76
2022/01/22 16:30:31;;;;;;;6.87;1.73;;;;;;;;;;5085761;28;20282;-82
2022/01/22 16:32:57;;;;;;;9.67;2.10;;;;;;;;;;5068659;28;20446;-81
2022/01/22 16:35:23;;;;;;;12.00;3.30;;;;;;;;;;5084439;28;20286;-82